sensor_id;sensor_type;location;lat;lon;timestamp;temperature;humidity
43999;DHT22;51319;52.162;5.302;2023-05-07T00:02:09;15.30;99.90
43999;DHT22;51319;52.162;5.302;2023-05-07T00:04:37;15.30;99.90
43999;DHT22;51319;52.162;5.302;2023-05-07T00:07:06;15.30;99.90
43999;DHT22;51319;52.162;5.302;2023-05-07T00:09:33;15.30;99.90
43999;DHT22;51319;52.162;5.302;2023-05-07T00:12:00;15.30;99.90
43999;DHT22;51319;52.162;5.302;2023-05-07T00:14:27;15.30;99.90
43999;DHT22;51319;52.162;5.302;2023-05-07T00:16:55;15.30;99.90
43999;DHT22;51319;52.162;5.302;2023-05-07T00:19:24;15.20;99.90
43999;DHT22;51319;52.162;5.302;2023-05-07T00:21:53;15.20;99.90
43999;DHT22;51319;52.162;5.302;2023-05-07T00:24:20;15.20;99.90
43999;DHT22;51319;52.162;5.302;2023-05-07T00:26:48;15.20;99.90
43999;DHT22;51319;52.162;5.302;2023-05-07T00:29:15;15.10;99.90
43999;DHT22;51319;52.162;5.302;2023-05-07T00:31:43;15.10;99.90
43999;DHT22;51319;52.162;5.302;2023-05-07T00:34:10;15.10;99.90
43999;DHT22;51319;52.162;5.302;2023-05-07T00:36:37;15.10;99.90
43999;DHT22;51319;52.162;5.302;2023-05-07T00:39:04;15.10;99.90
43999;DHT22;51319;52.162;5.302;2023-05-07T00:41:33;15.10;99.90
43999;DHT22;51319;52.162;5.302;2023-05-07T00:44:00;15.10;99.90
43999;DHT22;51319;52.162;5.302;2023-05-07T00:46:32;15.10;99.90
43999;DHT22;51319;52.162;5.302;2023-05-07T00:48:59;15.10;99.90
43999;DHT22;51319;52.162;5.302;2023-05-07T00:51:30;15.00;99.90
43999;DHT22;51319;52.162;5.302;2023-05-07T00:53:57;15.10;99.90
43999;DHT22;51319;52.162;5.302;2023-05-07T00:56:24;15.10;99.90
43999;DHT22;51319;52.162;5.302;2023-05-07T00:58:54;15.10;99.90
43999;DHT22;51319;52.162;5.302;2023-05-07T01:01:24;15.00;99.90
43999;DHT22;51319;52.162;5.302;2023-05-07T01:03:52;15.10;99.90
43999;DHT22;51319;52.162;5.302;2023-05-07T01:06:21;15.00;99.90
43999;DHT22;51319;52.162;5.302;2023-05-07T01:08:50;15.10;99.90
43999;DHT22;51319;52.162;5.302;2023-05-07T01:11:20;15.00;99.90
43999;DHT22;51319;52.162;5.302;2023-05-07T01:13:49;15.00;99.90
43999;DHT22;51319;52.162;5.302;2023-05-07T01:16:17;15.10;99.90
43999;DHT22;51319;52.162;5.302;2023-05-07T01:18:44;15.10;99.90
43999;DHT22;51319;52.162;5.302;2023-05-07T01:21:16;15.10;99.90
43999;DHT22;51319;52.162;5.302;2023-05-07T01:23:45;15.10;99.90
43999;DHT22;51319;52.162;5.302;2023-05-07T01:26:13;15.00;99.90
43999;DHT22;51319;52.162;5.302;2023-05-07T01:28:41;15.10;99.90
43999;DHT22;51319;52.162;5.302;2023-05-07T01:31:08;15.10;99.90
43999;DHT22;51319;52.162;5.302;2023-05-07T01:33:37;15.10;99.90
43999;DHT22;51319;52.162;5.302;2023-05-07T01:36:06;15.10;99.90
43999;DHT22;51319;52.162;5.302;2023-05-07T01:38:37;15.10;99.90
43999;DHT22;51319;52.162;5.302;2023-05-07T01:41:07;15.10;99.90
43999;DHT22;51319;52.162;5.302;2023-05-07T01:43:35;15.10;99.90
43999;DHT22;51319;52.162;5.302;2023-05-07T01:46:02;15.10;99.90
43999;DHT22;51319;52.162;5.302;2023-05-07T01:48:30;15.10;99.90
43999;DHT22;51319;52.162;5.302;2023-05-07T01:51:00;15.10;99.90
43999;DHT22;51319;52.162;5.302;2023-05-07T01:53:35;15.10;99.90
43999;DHT22;51319;52.162;5.302;2023-05-07T01:56:04;15.10;99.90
43999;DHT22;51319;52.162;5.302;2023-05-07T01:58:31;15.10;99.90
43999;DHT22;51319;52.162;5.302;2023-05-07T02:00:58;15.10;99.90
43999;DHT22;51319;52.162;5.302;2023-05-07T02:03:26;15.10;99.90
43999;DHT22;51319;52.162;5.302;2023-05-07T02:05:53;15.00;99.90
43999;DHT22;51319;52.162;5.302;2023-05-07T02:08:20;15.00;99.90
43999;DHT22;51319;52.162;5.302;2023-05-07T02:10:48;15.00;99.90
43999;DHT22;51319;52.162;5.302;2023-05-07T02:13:16;15.00;99.90
43999;DHT22;51319;52.162;5.302;2023-05-07T02:15:43;15.00;99.90
43999;DHT22;51319;52.162;5.302;2023-05-07T02:18:13;15.00;99.90
43999;DHT22;51319;52.162;5.302;2023-05-07T02:20:40;15.00;99.90
43999;DHT22;51319;52.162;5.302;2023-05-07T02:23:11;14.90;99.90
43999;DHT22;51319;52.162;5.302;2023-05-07T02:25:38;14.90;99.90
43999;DHT22;51319;52.162;5.302;2023-05-07T02:28:07;14.90;99.90
43999;DHT22;51319;52.162;5.302;2023-05-07T02:30:38;14.90;99.90
43999;DHT22;51319;52.162;5.302;2023-05-07T02:33:05;14.90;99.90
43999;DHT22;51319;52.162;5.302;2023-05-07T02:35:33;14.90;99.90
43999;DHT22;51319;52.162;5.302;2023-05-07T02:38:00;14.90;99.90
43999;DHT22;51319;52.162;5.302;2023-05-07T02:40:27;14.90;99.90
43999;DHT22;51319;52.162;5.302;2023-05-07T02:42:55;14.90;99.90
43999;DHT22;51319;52.162;5.302;2023-05-07T02:45:22;14.90;99.90
43999;DHT22;51319;52.162;5.302;2023-05-07T02:47:52;14.90;99.90
43999;DHT22;51319;52.162;5.302;2023-05-07T02:50:20;14.90;99.90
43999;DHT22;51319;52.162;5.302;2023-05-07T02:52:47;14.90;99.90
43999;DHT22;51319;52.162;5.302;2023-05-07T02:55:17;14.90;99.90
43999;DHT22;51319;52.162;5.302;2023-05-07T02:57:44;14.90;99.90
43999;DHT22;51319;52.162;5.302;2023-05-07T03:00:16;14.90;99.90
43999;DHT22;51319;52.162;5.302;2023-05-07T03:02:46;14.90;99.90
43999;DHT22;51319;52.162;5.302;2023-05-07T03:05:13;14.80;99.90
43999;DHT22;51319;52.162;5.302;2023-05-07T03:07:42;14.80;99.90
43999;DHT22;51319;52.162;5.302;2023-05-07T03:10:12;14.80;99.90
43999;DHT22;51319;52.162;5.302;2023-05-07T03:12:39;14.70;99.90
43999;DHT22;51319;52.162;5.302;2023-05-07T03:15:06;14.70;99.90
43999;DHT22;51319;52.162;5.302;2023-05-07T03:17:34;14.70;99.90
43999;DHT22;51319;52.162;5.302;2023-05-07T03:20:02;14.70;99.90
43999;DHT22;51319;52.162;5.302;2023-05-07T03:22:31;14.70;99.90
43999;DHT22;51319;52.162;5.302;2023-05-07T03:25:00;14.70;99.90
43999;DHT22;51319;52.162;5.302;2023-05-07T03:27:27;14.70;99.90
43999;DHT22;51319;52.162;5.302;2023-05-07T03:29:54;14.70;99.90
43999;DHT22;51319;52.162;5.302;2023-05-07T03:32:21;14.70;99.90
43999;DHT22;51319;52.162;5.302;2023-05-07T03:34:50;14.70;99.90
43999;DHT22;51319;52.162;5.302;2023-05-07T03:37:17;14.70;99.90
43999;DHT22;51319;52.162;5.302;2023-05-07T03:39:48;14.70;99.90
43999;DHT22;51319;52.162;5.302;2023-05-07T03:42:17;14.70;99.90
43999;DHT22;51319;52.162;5.302;2023-05-07T03:44:44;14.70;99.90
43999;DHT22;51319;52.162;5.302;2023-05-07T03:47:15;14.70;99.90
43999;DHT22;51319;52.162;5.302;2023-05-07T03:49:44;14.70;99.90
43999;DHT22;51319;52.162;5.302;2023-05-07T03:52:14;14.60;99.90
43999;DHT22;51319;52.162;5.302;2023-05-07T03:54:41;14.60;99.90
43999;DHT22;51319;52.162;5.302;2023-05-07T03:57:08;14.60;99.90
43999;DHT22;51319;52.162;5.302;2023-05-07T03:59:35;14.60;99.90
43999;DHT22;51319;52.162;5.302;2023-05-07T04:02:03;14.50;99.90
43999;DHT22;51319;52.162;5.302;2023-05-07T04:04:32;14.50;99.90
43999;DHT22;51319;52.162;5.302;2023-05-07T04:06:59;14.60;99.90
43999;DHT22;51319;52.162;5.302;2023-05-07T04:09:27;14.60;99.90
43999;DHT22;51319;52.162;5.302;2023-05-07T04:11:54;14.60;99.90
43999;DHT22;51319;52.162;5.302;2023-05-07T04:14:24;14.60;99.90
43999;DHT22;51319;52.162;5.302;2023-05-07T04:16:51;14.60;99.90
43999;DHT22;51319;52.162;5.302;2023-05-07T04:19:20;14.70;99.90
43999;DHT22;51319;52.162;5.302;2023-05-07T04:21:47;14.70;99.90
43999;DHT22;51319;52.162;5.302;2023-05-07T04:24:16;14.70;99.90
43999;DHT22;51319;52.162;5.302;2023-05-07T04:26:43;14.70;99.90
43999;DHT22;51319;52.162;5.302;2023-05-07T04:29:11;14.70;99.90
43999;DHT22;51319;52.162;5.302;2023-05-07T04:31:38;14.70;99.90
43999;DHT22;51319;52.162;5.302;2023-05-07T04:34:05;14.80;99.90
43999;DHT22;51319;52.162;5.302;2023-05-07T04:36:32;14.80;99.90
43999;DHT22;51319;52.162;5.302;2023-05-07T04:39:00;14.80;99.90
43999;DHT22;51319;52.162;5.302;2023-05-07T04:41:31;14.80;99.90
43999;DHT22;51319;52.162;5.302;2023-05-07T04:44:01;14.90;99.90
43999;DHT22;51319;52.162;5.302;2023-05-07T04:46:28;14.80;99.90
43999;DHT22;51319;52.162;5.302;2023-05-07T04:48:55;14.90;99.90
43999;DHT22;51319;52.162;5.302;2023-05-07T04:51:25;14.90;99.90
43999;DHT22;51319;52.162;5.302;2023-05-07T04:53:53;14.90;99.90
43999;DHT22;51319;52.162;5.302;2023-05-07T04:56:21;14.90;99.90
43999;DHT22;51319;52.162;5.302;2023-05-07T04:58:49;14.90;99.90
43999;DHT22;51319;52.162;5.302;2023-05-07T05:01:17;14.90;99.90
43999;DHT22;51319;52.162;5.302;2023-05-07T05:03:44;14.90;99.90
43999;DHT22;51319;52.162;5.302;2023-05-07T05:06:11;14.90;99.90
43999;DHT22;51319;52.162;5.302;2023-05-07T05:08:38;15.00;99.90
43999;DHT22;51319;52.162;5.302;2023-05-07T05:11:05;15.00;99.90
43999;DHT22;51319;52.162;5.302;2023-05-07T05:13:32;15.00;99.90
43999;DHT22;51319;52.162;5.302;2023-05-07T05:16:00;15.00;99.90
43999;DHT22;51319;52.162;5.302;2023-05-07T05:18:27;15.00;99.90
43999;DHT22;51319;52.162;5.302;2023-05-07T05:20:56;15.00;99.90
43999;DHT22;51319;52.162;5.302;2023-05-07T05:23:25;15.00;99.90
43999;DHT22;51319;52.162;5.302;2023-05-07T05:25:56;15.00;99.90
43999;DHT22;51319;52.162;5.302;2023-05-07T05:28:24;15.00;99.90
43999;DHT22;51319;52.162;5.302;2023-05-07T05:30:51;15.10;99.90
43999;DHT22;51319;52.162;5.302;2023-05-07T05:33:19;15.10;99.90
43999;DHT22;51319;52.162;5.302;2023-05-07T05:35:49;15.10;99.90
43999;DHT22;51319;52.162;5.302;2023-05-07T05:38:17;15.10;99.90
43999;DHT22;51319;52.162;5.302;2023-05-07T05:40:45;15.20;99.90
43999;DHT22;51319;52.162;5.302;2023-05-07T05:43:25;15.20;99.90
43999;DHT22;51319;52.162;5.302;2023-05-07T05:45:52;15.20;99.90
43999;DHT22;51319;52.162;5.302;2023-05-07T05:48:19;15.20;99.90
43999;DHT22;51319;52.162;5.302;2023-05-07T05:50:48;15.30;99.90
43999;DHT22;51319;52.162;5.302;2023-05-07T05:53:15;15.30;99.90
43999;DHT22;51319;52.162;5.302;2023-05-07T05:55:43;15.30;99.90
43999;DHT22;51319;52.162;5.302;2023-05-07T05:58:17;15.30;99.90
43999;DHT22;51319;52.162;5.302;2023-05-07T06:00:47;15.20;99.90
43999;DHT22;51319;52.162;5.302;2023-05-07T06:03:19;15.20;99.90
43999;DHT22;51319;52.162;5.302;2023-05-07T06:05:50;15.30;99.90
43999;DHT22;51319;52.162;5.302;2023-05-07T06:08:21;15.30;99.90
43999;DHT22;51319;52.162;5.302;2023-05-07T06:10:48;15.20;99.90
43999;DHT22;51319;52.162;5.302;2023-05-07T06:13:17;15.20;99.90
43999;DHT22;51319;52.162;5.302;2023-05-07T06:15:49;15.20;99.90
43999;DHT22;51319;52.162;5.302;2023-05-07T06:18:19;15.20;99.90
43999;DHT22;51319;52.162;5.302;2023-05-07T06:20:46;15.20;99.90
43999;DHT22;51319;52.162;5.302;2023-05-07T06:23:14;15.30;99.90
43999;DHT22;51319;52.162;5.302;2023-05-07T06:25:48;15.30;99.90
43999;DHT22;51319;52.162;5.302;2023-05-07T06:28:16;15.30;99.90
43999;DHT22;51319;52.162;5.302;2023-05-07T06:30:43;15.20;99.90
43999;DHT22;51319;52.162;5.302;2023-05-07T06:33:11;15.20;99.90
43999;DHT22;51319;52.162;5.302;2023-05-07T06:35:38;15.30;99.90
43999;DHT22;51319;52.162;5.302;2023-05-07T06:38:05;15.30;99.90
43999;DHT22;51319;52.162;5.302;2023-05-07T06:40:32;15.40;99.90
43999;DHT22;51319;52.162;5.302;2023-05-07T06:43:03;15.40;99.90
43999;DHT22;51319;52.162;5.302;2023-05-07T06:45:33;15.50;99.90
43999;DHT22;51319;52.162;5.302;2023-05-07T06:48:00;15.60;99.90
43999;DHT22;51319;52.162;5.302;2023-05-07T06:50:30;15.60;99.90
43999;DHT22;51319;52.162;5.302;2023-05-07T06:52:59;15.70;99.90
43999;DHT22;51319;52.162;5.302;2023-05-07T06:55:26;15.80;99.90
43999;DHT22;51319;52.162;5.302;2023-05-07T06:57:54;15.80;99.90
43999;DHT22;51319;52.162;5.302;2023-05-07T07:00:22;15.90;99.90
43999;DHT22;51319;52.162;5.302;2023-05-07T07:02:50;16.00;99.90
43999;DHT22;51319;52.162;5.302;2023-05-07T07:05:18;16.20;99.90
43999;DHT22;51319;52.162;5.302;2023-05-07T07:07:45;16.30;99.90
43999;DHT22;51319;52.162;5.302;2023-05-07T07:10:22;16.40;99.90
43999;DHT22;51319;52.162;5.302;2023-05-07T07:12:51;16.50;99.90
43999;DHT22;51319;52.162;5.302;2023-05-07T07:15:20;16.70;99.90
43999;DHT22;51319;52.162;5.302;2023-05-07T07:17:48;16.80;99.90
43999;DHT22;51319;52.162;5.302;2023-05-07T07:20:16;17.00;99.90
43999;DHT22;51319;52.162;5.302;2023-05-07T07:22:44;17.10;99.90
43999;DHT22;51319;52.162;5.302;2023-05-07T07:25:11;17.20;99.90
43999;DHT22;51319;52.162;5.302;2023-05-07T07:27:41;17.50;99.90
43999;DHT22;51319;52.162;5.302;2023-05-07T07:30:08;17.70;99.60
43999;DHT22;51319;52.162;5.302;2023-05-07T07:32:36;18.00;98.90
43999;DHT22;51319;52.162;5.302;2023-05-07T07:35:03;18.30;98.40
43999;DHT22;51319;52.162;5.302;2023-05-07T07:37:31;18.70;97.30
43999;DHT22;51319;52.162;5.302;2023-05-07T07:40:00;19.60;96.00
43999;DHT22;51319;52.162;5.302;2023-05-07T07:42:28;20.60;93.60
43999;DHT22;51319;52.162;5.302;2023-05-07T07:44:56;21.70;91.40
43999;DHT22;51319;52.162;5.302;2023-05-07T07:47:28;22.40;87.40
43999;DHT22;51319;52.162;5.302;2023-05-07T07:49:55;22.30;83.20
43999;DHT22;51319;52.162;5.302;2023-05-07T07:52:22;21.90;81.60
43999;DHT22;51319;52.162;5.302;2023-05-07T07:54:50;21.40;82.50
43999;DHT22;51319;52.162;5.302;2023-05-07T07:57:22;20.90;84.60
43999;DHT22;51319;52.162;5.302;2023-05-07T07:59:57;20.50;85.40
43999;DHT22;51319;52.162;5.302;2023-05-07T08:02:26;20.20;86.40
43999;DHT22;51319;52.162;5.302;2023-05-07T08:04:56;20.00;87.50
43999;DHT22;51319;52.162;5.302;2023-05-07T08:07:24;19.80;87.60
43999;DHT22;51319;52.162;5.302;2023-05-07T08:09:51;19.70;87.80
43999;DHT22;51319;52.162;5.302;2023-05-07T08:12:30;19.40;87.50
43999;DHT22;51319;52.162;5.302;2023-05-07T08:15:00;19.20;88.30
43999;DHT22;51319;52.162;5.302;2023-05-07T08:17:27;19.10;89.10
43999;DHT22;51319;52.162;5.302;2023-05-07T08:19:56;18.90;89.80
43999;DHT22;51319;52.162;5.302;2023-05-07T08:22:23;18.70;90.40
43999;DHT22;51319;52.162;5.302;2023-05-07T08:24:53;18.60;91.50
43999;DHT22;51319;52.162;5.302;2023-05-07T08:27:26;18.70;92.10
43999;DHT22;51319;52.162;5.302;2023-05-07T08:29:55;18.70;92.80
43999;DHT22;51319;52.162;5.302;2023-05-07T08:32:23;18.70;92.90
43999;DHT22;51319;52.162;5.302;2023-05-07T08:34:51;18.80;93.00
43999;DHT22;51319;52.162;5.302;2023-05-07T08:37:18;18.90;92.70
43999;DHT22;51319;52.162;5.302;2023-05-07T08:39:45;19.00;92.60
43999;DHT22;51319;52.162;5.302;2023-05-07T08:42:19;19.10;92.90
43999;DHT22;51319;52.162;5.302;2023-05-07T08:44:51;19.20;92.70
43999;DHT22;51319;52.162;5.302;2023-05-07T08:47:26;19.10;92.20
43999;DHT22;51319;52.162;5.302;2023-05-07T08:49:56;19.00;92.20
43999;DHT22;51319;52.162;5.302;2023-05-07T08:52:24;19.00;92.70
43999;DHT22;51319;52.162;5.302;2023-05-07T08:54:56;19.00;92.90
43999;DHT22;51319;52.162;5.302;2023-05-07T08:57:25;19.00;93.00
43999;DHT22;51319;52.162;5.302;2023-05-07T08:59:53;19.00;92.60
43999;DHT22;51319;52.162;5.302;2023-05-07T09:02:20;19.00;92.40
43999;DHT22;51319;52.162;5.302;2023-05-07T09:04:50;19.10;92.20
43999;DHT22;51319;52.162;5.302;2023-05-07T09:07:19;19.00;92.20
43999;DHT22;51319;52.162;5.302;2023-05-07T09:09:46;19.10;92.10
43999;DHT22;51319;52.162;5.302;2023-05-07T09:12:14;19.20;91.90
43999;DHT22;51319;52.162;5.302;2023-05-07T09:14:41;19.30;91.80
43999;DHT22;51319;52.162;5.302;2023-05-07T09:17:08;19.40;91.70
43999;DHT22;51319;52.162;5.302;2023-05-07T09:19:37;19.50;91.50
43999;DHT22;51319;52.162;5.302;2023-05-07T09:22:08;19.60;91.30
43999;DHT22;51319;52.162;5.302;2023-05-07T09:24:35;19.80;91.30
43999;DHT22;51319;52.162;5.302;2023-05-07T09:27:07;20.00;90.90
43999;DHT22;51319;52.162;5.302;2023-05-07T09:29:44;20.10;90.10
43999;DHT22;51319;52.162;5.302;2023-05-07T09:32:14;20.20;89.50
43999;DHT22;51319;52.162;5.302;2023-05-07T09:34:42;20.30;88.70
43999;DHT22;51319;52.162;5.302;2023-05-07T09:37:12;20.30;87.30
43999;DHT22;51319;52.162;5.302;2023-05-07T09:39:48;20.40;87.60
43999;DHT22;51319;52.162;5.302;2023-05-07T09:42:16;20.40;87.30
43999;DHT22;51319;52.162;5.302;2023-05-07T09:44:44;20.50;87.30
43999;DHT22;51319;52.162;5.302;2023-05-07T09:47:18;20.60;86.50
43999;DHT22;51319;52.162;5.302;2023-05-07T09:49:50;20.70;84.10
43999;DHT22;51319;52.162;5.302;2023-05-07T09:52:19;20.80;83.50
43999;DHT22;51319;52.162;5.302;2023-05-07T09:54:47;20.80;83.70
43999;DHT22;51319;52.162;5.302;2023-05-07T09:57:16;21.00;83.30
43999;DHT22;51319;52.162;5.302;2023-05-07T09:59:47;21.10;83.20
43999;DHT22;51319;52.162;5.302;2023-05-07T10:02:18;21.30;83.00
43999;DHT22;51319;52.162;5.302;2023-05-07T10:04:48;21.50;82.20
43999;DHT22;51319;52.162;5.302;2023-05-07T10:07:16;21.50;78.80
43999;DHT22;51319;52.162;5.302;2023-05-07T10:09:46;21.60;78.30
43999;DHT22;51319;52.162;5.302;2023-05-07T10:12:17;21.60;78.90
43999;DHT22;51319;52.162;5.302;2023-05-07T10:14:56;21.70;79.20
43999;DHT22;51319;52.162;5.302;2023-05-07T10:17:39;21.60;77.40
43999;DHT22;51319;52.162;5.302;2023-05-07T10:20:10;21.70;77.10
43999;DHT22;51319;52.162;5.302;2023-05-07T10:22:47;21.80;76.70
43999;DHT22;51319;52.162;5.302;2023-05-07T10:25:30;21.80;74.80
43999;DHT22;51319;52.162;5.302;2023-05-07T10:28:09;21.80;74.10
43999;DHT22;51319;52.162;5.302;2023-05-07T10:34:23;22.30;72.60
43999;DHT22;51319;52.162;5.302;2023-05-07T10:36:57;23.00;72.30
43999;DHT22;51319;52.162;5.302;2023-05-07T10:39:29;23.50;70.70
43999;DHT22;51319;52.162;5.302;2023-05-07T10:41:57;24.00;68.70
43999;DHT22;51319;52.162;5.302;2023-05-07T10:44:33;24.30;66.90
43999;DHT22;51319;52.162;5.302;2023-05-07T10:47:15;25.00;67.30
43999;DHT22;51319;52.162;5.302;2023-05-07T10:58:36;27.20;59.00
43999;DHT22;51319;52.162;5.302;2023-05-07T11:01:06;27.40;58.10
43999;DHT22;51319;52.162;5.302;2023-05-07T11:03:33;27.80;55.70
43999;DHT22;51319;52.162;5.302;2023-05-07T11:06:14;27.70;54.10
43999;DHT22;51319;52.162;5.302;2023-05-07T11:08:56;27.90;53.60
43999;DHT22;51319;52.162;5.302;2023-05-07T11:11:46;28.60;54.00
43999;DHT22;51319;52.162;5.302;2023-05-07T11:14:42;29.20;51.20
43999;DHT22;51319;52.162;5.302;2023-05-07T11:17:12;29.50;50.90
43999;DHT22;51319;52.162;5.302;2023-05-07T11:19:53;30.10;50.20
43999;DHT22;51319;52.162;5.302;2023-05-07T11:24:59;30.50;48.20
43999;DHT22;51319;52.162;5.302;2023-05-07T11:27:27;30.70;49.00
43999;DHT22;51319;52.162;5.302;2023-05-07T11:29:56;30.40;48.30
43999;DHT22;51319;52.162;5.302;2023-05-07T11:32:31;30.40;50.10
43999;DHT22;51319;52.162;5.302;2023-05-07T11:35:00;30.40;49.90
43999;DHT22;51319;52.162;5.302;2023-05-07T11:37:31;30.40;49.50
43999;DHT22;51319;52.162;5.302;2023-05-07T11:40:09;30.50;48.80
43999;DHT22;51319;52.162;5.302;2023-05-07T11:42:41;30.20;47.60
43999;DHT22;51319;52.162;5.302;2023-05-07T11:45:10;30.10;49.00
43999;DHT22;51319;52.162;5.302;2023-05-07T11:47:41;30.40;48.50
43999;DHT22;51319;52.162;5.302;2023-05-07T11:50:11;30.50;47.90
43999;DHT22;51319;52.162;5.302;2023-05-07T11:52:50;30.40;48.90
43999;DHT22;51319;52.162;5.302;2023-05-07T11:55:20;30.60;47.10
43999;DHT22;51319;52.162;5.302;2023-05-07T11:57:50;30.10;47.00
43999;DHT22;51319;52.162;5.302;2023-05-07T12:00:18;29.80;47.90
43999;DHT22;51319;52.162;5.302;2023-05-07T12:02:45;30.20;48.10
43999;DHT22;51319;52.162;5.302;2023-05-07T12:05:14;30.70;47.90
43999;DHT22;51319;52.162;5.302;2023-05-07T12:07:41;31.30;46.90
43999;DHT22;51319;52.162;5.302;2023-05-07T12:10:11;31.00;47.50
43999;DHT22;51319;52.162;5.302;2023-05-07T12:12:40;30.60;47.10
43999;DHT22;51319;52.162;5.302;2023-05-07T12:15:10;30.40;48.50
43999;DHT22;51319;52.162;5.302;2023-05-07T12:17:40;30.60;48.50
43999;DHT22;51319;52.162;5.302;2023-05-07T12:20:34;30.70;47.40
43999;DHT22;51319;52.162;5.302;2023-05-07T12:23:02;31.30;47.80
43999;DHT22;51319;52.162;5.302;2023-05-07T12:25:42;31.90;47.50
43999;DHT22;51319;52.162;5.302;2023-05-07T12:28:16;32.70;46.00
43999;DHT22;51319;52.162;5.302;2023-05-07T12:30:48;33.10;46.00
43999;DHT22;51319;52.162;5.302;2023-05-07T12:33:22;33.10;43.90
43999;DHT22;51319;52.162;5.302;2023-05-07T12:35:49;33.20;45.90
43999;DHT22;51319;52.162;5.302;2023-05-07T12:38:17;33.60;44.20
43999;DHT22;51319;52.162;5.302;2023-05-07T12:40:49;33.50;43.80
43999;DHT22;51319;52.162;5.302;2023-05-07T12:43:28;33.10;43.20
43999;DHT22;51319;52.162;5.302;2023-05-07T12:45:59;32.60;44.30
43999;DHT22;51319;52.162;5.302;2023-05-07T12:48:27;32.20;44.70
43999;DHT22;51319;52.162;5.302;2023-05-07T12:50:55;31.30;45.90
43999;DHT22;51319;52.162;5.302;2023-05-07T12:53:24;30.40;46.70
43999;DHT22;51319;52.162;5.302;2023-05-07T12:55:55;29.60;47.50
43999;DHT22;51319;52.162;5.302;2023-05-07T12:58:32;28.90;49.20
43999;DHT22;51319;52.162;5.302;2023-05-07T13:01:05;28.40;50.30
43999;DHT22;51319;52.162;5.302;2023-05-07T13:03:34;28.00;51.50
43999;DHT22;51319;52.162;5.302;2023-05-07T13:06:09;27.70;51.70
43999;DHT22;51319;52.162;5.302;2023-05-07T13:08:39;27.40;52.00
43999;DHT22;51319;52.162;5.302;2023-05-07T13:11:12;27.20;51.90
43999;DHT22;51319;52.162;5.302;2023-05-07T13:13:41;27.00;53.20
43999;DHT22;51319;52.162;5.302;2023-05-07T13:16:10;26.80;53.40
43999;DHT22;51319;52.162;5.302;2023-05-07T13:18:40;26.60;54.90
43999;DHT22;51319;52.162;5.302;2023-05-07T13:21:08;26.50;55.00
43999;DHT22;51319;52.162;5.302;2023-05-07T13:23:36;26.30;55.10
43999;DHT22;51319;52.162;5.302;2023-05-07T13:26:07;26.10;55.80
43999;DHT22;51319;52.162;5.302;2023-05-07T13:28:55;25.90;55.10
43999;DHT22;51319;52.162;5.302;2023-05-07T13:31:26;25.70;55.90
43999;DHT22;51319;52.162;5.302;2023-05-07T13:33:53;25.50;56.20
43999;DHT22;51319;52.162;5.302;2023-05-07T13:36:26;25.40;55.80
43999;DHT22;51319;52.162;5.302;2023-05-07T13:38:53;25.30;56.10
43999;DHT22;51319;52.162;5.302;2023-05-07T13:41:22;25.20;56.40
43999;DHT22;51319;52.162;5.302;2023-05-07T13:43:50;25.00;57.00
43999;DHT22;51319;52.162;5.302;2023-05-07T13:46:17;24.90;57.80
43999;DHT22;51319;52.162;5.302;2023-05-07T13:48:46;24.80;58.00
43999;DHT22;51319;52.162;5.302;2023-05-07T13:51:15;24.80;57.30
43999;DHT22;51319;52.162;5.302;2023-05-07T13:53:43;24.70;57.90
43999;DHT22;51319;52.162;5.302;2023-05-07T13:56:10;24.70;58.80
43999;DHT22;51319;52.162;5.302;2023-05-07T13:58:37;24.70;60.50
43999;DHT22;51319;52.162;5.302;2023-05-07T14:01:24;24.60;62.40
43999;DHT22;51319;52.162;5.302;2023-05-07T14:03:57;24.50;64.20
43999;DHT22;51319;52.162;5.302;2023-05-07T14:06:42;24.40;65.90
43999;DHT22;51319;52.162;5.302;2023-05-07T14:09:09;24.50;64.10
43999;DHT22;51319;52.162;5.302;2023-05-07T14:11:39;24.40;63.40
43999;DHT22;51319;52.162;5.302;2023-05-07T14:14:06;24.40;62.90
43999;DHT22;51319;52.162;5.302;2023-05-07T14:16:33;24.40;62.60
43999;DHT22;51319;52.162;5.302;2023-05-07T14:19:00;24.30;64.80
43999;DHT22;51319;52.162;5.302;2023-05-07T14:21:30;24.10;66.00
43999;DHT22;51319;52.162;5.302;2023-05-07T14:23:57;24.00;66.10
43999;DHT22;51319;52.162;5.302;2023-05-07T14:26:24;24.00;65.60
43999;DHT22;51319;52.162;5.302;2023-05-07T14:28:53;23.90;64.50
43999;DHT22;51319;52.162;5.302;2023-05-07T14:31:21;23.80;64.50
43999;DHT22;51319;52.162;5.302;2023-05-07T14:33:48;23.70;64.60
43999;DHT22;51319;52.162;5.302;2023-05-07T14:36:18;23.70;65.90
43999;DHT22;51319;52.162;5.302;2023-05-07T14:38:48;23.50;67.20
43999;DHT22;51319;52.162;5.302;2023-05-07T14:41:21;23.30;67.00
43999;DHT22;51319;52.162;5.302;2023-05-07T14:43:48;23.20;68.20
43999;DHT22;51319;52.162;5.302;2023-05-07T14:48:49;22.80;69.10
43999;DHT22;51319;52.162;5.302;2023-05-07T14:51:16;22.70;69.70
43999;DHT22;51319;52.162;5.302;2023-05-07T14:53:43;22.60;69.60
43999;DHT22;51319;52.162;5.302;2023-05-07T14:56:10;22.50;70.10
43999;DHT22;51319;52.162;5.302;2023-05-07T14:58:37;22.40;70.50
43999;DHT22;51319;52.162;5.302;2023-05-07T15:01:06;22.30;71.20
43999;DHT22;51319;52.162;5.302;2023-05-07T15:03:33;22.20;72.40
43999;DHT22;51319;52.162;5.302;2023-05-07T15:06:01;22.10;73.70
43999;DHT22;51319;52.162;5.302;2023-05-07T15:08:29;21.90;74.80
43999;DHT22;51319;52.162;5.302;2023-05-07T15:10:56;21.70;75.60
43999;DHT22;51319;52.162;5.302;2023-05-07T15:13:23;21.50;76.90
43999;DHT22;51319;52.162;5.302;2023-05-07T15:15:50;21.30;78.10
43999;DHT22;51319;52.162;5.302;2023-05-07T15:18:17;21.00;78.60
43999;DHT22;51319;52.162;5.302;2023-05-07T15:20:47;20.60;78.90
43999;DHT22;51319;52.162;5.302;2023-05-07T15:23:14;20.20;79.40
43999;DHT22;51319;52.162;5.302;2023-05-07T15:25:41;19.80;80.20
43999;DHT22;51319;52.162;5.302;2023-05-07T15:28:17;19.60;81.30
43999;DHT22;51319;52.162;5.302;2023-05-07T15:30:47;19.40;82.00
43999;DHT22;51319;52.162;5.302;2023-05-07T15:33:14;19.20;82.70
43999;DHT22;51319;52.162;5.302;2023-05-07T15:35:41;18.90;83.50
43999;DHT22;51319;52.162;5.302;2023-05-07T15:38:08;18.80;84.60
43999;DHT22;51319;52.162;5.302;2023-05-07T15:40:35;18.50;86.00
43999;DHT22;51319;52.162;5.302;2023-05-07T15:43:09;18.30;87.60
43999;DHT22;51319;52.162;5.302;2023-05-07T15:45:41;18.10;89.30
43999;DHT22;51319;52.162;5.302;2023-05-07T15:48:11;18.00;90.20
43999;DHT22;51319;52.162;5.302;2023-05-07T15:50:38;17.80;90.70
43999;DHT22;51319;52.162;5.302;2023-05-07T15:53:05;17.70;91.10
43999;DHT22;51319;52.162;5.302;2023-05-07T15:55:34;17.60;91.50
43999;DHT22;51319;52.162;5.302;2023-05-07T15:58:03;17.60;92.10
43999;DHT22;51319;52.162;5.302;2023-05-07T16:00:33;17.60;92.50
43999;DHT22;51319;52.162;5.302;2023-05-07T16:03:01;17.60;92.40